Latest Weather Observations for Emerald

IDQ60801

Issued at 6:42 am EST Wednesday 8 April 2020 (issued every 10 minutes, with the page automatically refreshed every 10 minutes)

About weather observations | Map of weather stations | Latest weather observations for QLD | Other Formats
Station Details ID: 035264 Name: EMERALD AIRPORT Lat: -23.57 Lon: 148.18 Height: 189.4 m
Data from the previous 72 hours. | See also: Recent months at Emerald
Date/Time
EST
Temp
°C
App
Temp
°C
Dew
Point
°C
Rel
Hum
%
Delta-T
°C
Wind Press
QNH
hPa
Press
MSL
hPa
Rain since
9am
mm
Dir  Spd
km/h
Gust
km/h
Spd
kts
Gust
kts
08/06:30am 17.0 16.8 13.7 81 1.9 SSE 7 9 4 5 1015.9 1015.0 0.0
08/06:00am 16.9 16.4 13.8 82 1.8 SSE 9 11 5 6 1015.9 1015.0 0.0
08/05:30am 17.0 16.6 13.1 78 2.2 S 7 9 4 5 1015.8 1014.9 0.0
08/05:00am 17.3 17.1 13.6 79 2.1 SE 7 9 4 5 1015.4 1014.5 0.0
08/04:30am 17.2 16.2 13.5 79 2.1 SE 11 13 6 7 1015.1 1014.2 0.0
08/04:00am 17.5 16.2 13.8 79 2.1 ESE 13 15 7 8 1015.1 1014.2 0.0
08/03:30am 17.9 17.8 13.4 75 2.6 ENE 6 7 3 4 1015.1 1014.2 0.0
08/03:00am 17.6 17.0 13.5 77 2.3 E 9 11 5 6 1015.0 1014.1 0.0
08/02:30am 17.6 16.6 13.5 77 2.3 ESE 11 13 6 7 1015.0 1014.1 0.0
08/02:00am 18.0 17.0 13.5 75 2.6 E 11 13 6 7 1015.2 1014.3 0.0
08/01:30am 18.8 17.5 13.6 72 3.0 ENE 13 15 7 8 1015.2 1014.3 0.0
08/01:00am 19.8 18.4 13.5 67 3.6 ENE 13 15 7 8 1015.4 1014.5 0.0
08/12:30am 19.6 18.5 13.1 66 3.7 ENE 11 13 6 7 1015.4 1014.5 0.0
08/12:00am 20.1 18.7 12.3 61 4.4 ENE 11 13 6 7 1015.6 1014.7 0.0
 
Date/Time
EST
Temp
°C
App
Temp
°C
Dew
Point
°C
Rel
Hum
%
Delta-T
°C
Wind Press
QNH
hPa
Press
MSL
hPa
Rain since
9am
mm
Dir  Spd
km/h
Gust
km/h
Spd
kts
Gust
kts
07/11:30pm 20.6 19.0 11.5 56 5.1 NE 11 13 6 7 1015.6 1014.7 0.0
07/11:00pm 20.5 19.2 11.4 56 5.1 NE 9 13 5 7 1015.6 1014.7 0.0
07/10:30pm 20.7 18.7 11.6 56 5.1 ENE 13 15 7 8 1015.7 1014.8 0.0
07/10:00pm 20.8 19.4 10.9 53 5.5 E 9 11 5 6 1015.6 1014.7 0.0
07/09:30pm 21.4 20.1 11.1 52 5.7 E 9 11 5 6 1015.4 1014.5 0.0
07/09:00pm 21.7 20.4 11.4 52 5.8 E 9 11 5 6 1015.4 1014.5 0.0
07/08:30pm 21.9 20.2 11.3 51 5.9 E 11 11 6 6 1015.0 1014.1 0.0
07/08:00pm 23.7 20.9 10.0 42 7.6 ESE 15 17 8 9 1014.7 1013.8 0.0
07/07:30pm 23.4 20.4 9.4 41 7.6 ESE 15 19 8 10 1014.4 1013.5 0.0
07/07:00pm 25.5 22.0 8.9 35 9.1 SE 17 19 9 10 1013.8 1013.0 0.0
07/06:30pm 26.2 23.7 8.2 32 9.8 SSE 11 13 6 7 1013.5 1012.7 0.0
07/06:00pm 27.5 24.8 7.4 28 10.8 SE 11 11 6 6 1013.3 1012.4 0.0
07/05:30pm 29.3 25.8 7.2 25 12.0 SE 15 17 8 9 1012.9 1012.0 0.0
07/05:00pm 30.4 27.1 6.3 22 13.0 SSE 13 19 7 10 1012.8 1011.9 0.0
07/04:30pm 30.7 26.7 6.6 22 13.0 SE 17 22 9 12 1012.7 1011.8 0.0
07/04:00pm 31.1 27.5 6.9 22 13.2 SE 15 35 8 19 1012.5 1011.6 0.0
07/03:30pm 31.2 27.9 6.3 21 13.4 ESE 13 20 7 11 1012.5 1011.6 0.0
07/03:00pm 30.9 27.7 6.7 22 13.1 ESE 13 20 7 11 1012.7 1011.8 0.0
07/02:30pm 30.5 28.8 8.3 25 12.3 SE 7 13 4 7 1012.9 1012.0 0.0
07/02:00pm 30.7 27.7 7.8 24 12.6 ENE 13 20 7 11 1013.2 1012.3 0.0
07/01:30pm 30.4 27.6 7.0 23 12.7 ENE 11 28 6 15 1013.6 1012.8 0.0
07/01:00pm 29.5 26.0 7.4 25 12.0 SE 15 22 8 12 1014.4 1013.5 0.0
07/12:30pm 28.7 26.6 8.4 28 11.2 ENE 9 15 5 8 1015.1 1014.2 0.0
07/12:00pm 28.4 26.2 9.2 30 10.7 ESE 11 20 6 11 1015.7 1014.8 0.0
07/11:30am 27.6 26.2 10.8 35 9.6 E 9 19 5 10 1016.3 1015.4 0.0
07/11:00am 27.3 24.5 11.3 37 9.2 E 17 24 9 13 1016.9 1016.0 0.0
07/10:30am 26.7 25.2 13.1 43 8.0 E 13 22 7 12 1017.3 1016.4 0.0
07/10:00am 25.9 23.4 10.9 39 8.5 ESE 15 22 8 12 1017.5 1016.6 0.0
07/09:30am 25.2 21.4 9.1 36 8.8 SE 19 24 10 13 1017.7 1016.8 0.0
07/09:00am 24.2 20.0 8.2 36 8.6 SE 20 28 11 15 1017.7 1016.8 0.0
07/08:30am 22.8 18.2 8.1 39 7.8 SSE 22 28 12 15 1017.6 1016.7 0.0
07/08:00am 21.6 17.0 8.1 42 7.1 SE 22 30 12 16 1017.0 1016.1 0.0
07/07:30am 19.4 15.2 8.1 48 5.9 SSE 20 26 11 14 1016.7 1015.8 0.0
07/07:00am 17.3 14.3 7.9 54 4.8 SSE 13 17 7 9 1016.6 1015.7 0.0
07/06:30am 16.3 13.3 7.5 56 4.4 SSE 13 20 7 11 1016.2 1015.3 0.0
07/06:00am 16.9 12.5 7.3 53 4.8 SSE 20 28 11 15 1015.8 1014.9 0.0
07/05:30am 16.4 12.5 7.3 55 4.6 SSE 17 20 9 11 1015.6 1014.7 0.0
07/05:00am 16.1 12.6 7.3 56 4.4 SSE 15 19 8 10 1015.4 1014.5 0.0
07/04:30am 15.6 13.7 6.9 56 4.3 SE 6 9 3 5 1015.2 1014.3 0.0
07/04:00am 17.2 13.7 7.0 51 5.1 SSE 15 19 8 10 1015.0 1014.1 0.0
07/03:30am 16.6 14.1 6.7 52 4.9 ESE 9 13 5 7 1014.9 1014.0 0.0
07/03:00am 17.5 14.1 6.1 47 5.6 SE 13 19 7 10 1015.0 1014.1 0.0
07/02:30am 18.3 14.1 5.8 44 6.2 SSE 17 22 9 12 1014.9 1014.0 0.0
07/02:00am 19.1 14.6 5.9 42 6.6 SSE 19 24 10 13 1014.8 1013.9 0.0
07/01:30am 18.4 13.8 5.6 43 6.3 SSE 19 24 10 13 1014.9 1014.0 0.0
07/01:00am 18.0 13.7 5.2 43 6.2 SSE 17 20 9 11 1015.1 1014.2 0.0
07/12:30am 18.8 14.5 5.3 41 6.6 SSE 17 22 9 12 1015.3 1014.4 0.0
07/12:00am 19.2 15.7 5.3 40 6.8 SSE 13 17 7 9 1015.4 1014.5 0.0
 
Date/Time
EST
Temp
°C
App
Temp
°C
Dew
Point
°C
Rel
Hum
%
Delta-T
°C
Wind Press
QNH
hPa
Press
MSL
hPa
Rain since
9am
mm
Dir  Spd
km/h
Gust
km/h
Spd
kts
Gust
kts
06/11:30pm 19.8 16.1 4.7 37 7.4 SSE 13 17 7 9 1015.6 1014.7 0.0
06/11:00pm 21.0 17.0 5.0 35 7.9 SSE 15 20 8 11 1015.7 1014.8 0.0
06/10:30pm 21.3 16.9 4.8 34 8.2 SE 17 20 9 11 1015.8 1014.9 0.0
06/10:00pm 21.0 17.2 4.1 33 8.2 SSE 13 15 7 8 1015.7 1014.8 0.0
06/09:30pm 22.0 17.8 3.6 30 8.9 SE 15 19 8 10 1015.7 1014.8 0.0
06/09:00pm 22.5 17.8 3.1 28 9.4 SE 17 20 9 11 1015.5 1014.6 0.0
06/08:30pm 22.0 18.5 5.4 34 8.3 SE 13 17 7 9 1015.5 1014.6 0.0
06/08:00pm 22.5 19.6 6.3 35 8.3 SE 11 15 6 8 1015.3 1014.4 0.0
06/07:30pm 23.0 20.1 6.7 35 8.5 ESE 11 13 6 7 1014.9 1014.0 0.0
06/07:00pm 24.1 21.3 6.8 33 9.0 SE 11 13 6 7 1014.4 1013.5 0.0
06/06:30pm 25.2 22.4 6.9 31 9.6 ESE 11 13 6 7 1013.9 1013.1 0.0
06/06:00pm 26.7 23.2 5.6 26 11.0 SE 13 15 7 8 1013.7 1012.9 0.0
06/05:30pm 28.9 25.6 6.3 24 12.0 SE 13 19 7 10 1013.5 1012.7 0.0
06/05:00pm 30.0 26.7 6.6 23 12.6 S 13 19 7 10 1013.2 1012.3 0.0
06/04:30pm 30.5 26.2 7.0 23 12.8 S 19 26 10 14 1012.9 1012.0 0.0
06/04:00pm 30.8 27.3 7.3 23 12.9 SE 15 26 8 14 1012.9 1012.0 0.0
06/03:30pm 30.4 26.6 7.6 24 12.5 SSE 17 28 9 15 1013.0 1012.1 0.0
06/03:00pm 30.7 28.4 9.0 26 12.2 SSE 11 24 6 13 1013.1 1012.2 0.0
06/02:30pm 30.4 28.0 8.7 26 12.1 SE 11 20 6 11 1013.4 1012.6 0.0
06/02:00pm 29.6 27.1 8.1 26 11.9 SSE 11 17 6 9 1013.7 1012.9 0.0
06/01:30pm 29.3 25.6 7.8 26 11.8 SSE 17 26 9 14 1014.2 1013.3 0.0
06/01:00pm 28.7 25.4 7.9 27 11.4 SSE 15 26 8 14 1014.8 1013.9 0.0
06/12:30pm 28.4 24.1 7.1 26 11.5 SE 19 28 10 15 1015.4 1014.5 0.0
06/12:00pm 28.1 24.4 7.9 28 11.0 SE 17 24 9 13 1016.3 1015.4 0.0
06/11:30am 27.3 23.3 8.2 30 10.4 SE 19 26 10 14 1016.8 1015.9 0.0
06/11:00am 26.5 22.4 8.0 31 10.0 SE 19 24 10 13 1017.4 1016.5 0.0
06/10:30am 25.7 21.4 7.8 32 9.6 SE 20 28 11 15 1017.7 1016.8 0.0
06/10:00am 25.0 19.9 7.6 33 9.3 SE 24 32 13 17 1018.0 1017.2 0.0
06/09:30am 24.2 18.8 7.8 35 8.7 SE 26 33 14 18 1018.4 1017.6 0.0
06/09:00am 23.1 17.6 7.6 37 8.2 SSE 26 35 14 19 1018.3 1017.5 0.0
06/08:30am 21.7 15.8 7.5 40 7.4 SSE 28 35 15 19 1018.1 1017.3 0.0
06/08:00am 20.5 15.5 8.2 45 6.4 SSE 24 32 13 17 1018.0 1017.2 0.0
06/07:30am 19.1 14.8 7.8 48 5.8 SSE 20 30 11 16 1017.7 1016.8 0.0
06/07:00am 17.9 13.6 7.9 52 5.1 SSE 20 24 11 13 1017.4 1016.5 0.0
06/06:30am 16.9 13.5 7.8 55 4.6 SSE 15 20 8 11 1017.0 1016.1 0.0
06/06:00am 17.0 13.7 7.9 55 4.6 SE 15 20 8 11 1016.5 1015.6 0.0
06/05:30am 17.4 14.5 8.0 54 4.8 SSE 13 20 7 11 1016.3 1015.4 0.0
06/05:00am 17.5 14.1 7.8 53 5.0 SE 15 20 8 11 1015.9 1015.0 0.0
06/04:30am 16.7 14.5 7.9 56 4.5 E 9 11 5 6 1015.6 1014.7 0.0
06/04:00am 18.0 15.0 7.7 51 5.3 ESE 13 19 7 10 1015.3 1014.4 0.0
06/03:30am 19.3 14.5 7.4 46 6.1 SSE 22 30 12 16 1014.7 1013.8 0.0
06/03:00am 19.4 14.3 7.5 46 6.1 SSE 24 33 13 18 1014.4 1013.5 0.0
06/02:30am 19.7 14.9 7.4 45 6.3 SSE 22 32 12 17 1014.3 1013.4 0.0
06/02:00am 20.1 15.0 7.5 44 6.5 SSE 24 35 13 19 1014.3 1013.4 0.0
06/01:30am 20.3 16.0 7.7 44 6.5 SSE 20 28 11 15 1014.6 1013.7 0.0
06/01:00am 20.3 16.0 8.0 45 6.4 SSE 20 26 11 14 1014.9 1014.0 0.0
06/12:30am 20.7 17.3 9.0 47 6.2 SSE 17 22 9 12 1015.1 1014.2 0.0
06/12:00am 21.8 17.8 9.0 44 6.9 SSE 20 26 11 14 1015.2 1014.3 0.0
 
Date/Time
EST
Temp
°C
App
Temp
°C
Dew
Point
°C
Rel
Hum
%
Delta-T
°C
Wind Press
QNH
hPa
Press
MSL
hPa
Rain since
9am
mm
Dir  Spd
km/h
Gust
km/h
Spd
kts
Gust
kts
05/11:30pm 22.1 17.6 8.6 42 7.2 SSE 22 28 12 15 1015.2 1014.3 0.0
05/11:00pm 22.5 18.4 8.6 41 7.4 SSE 20 26 11 14 1015.5 1014.6 0.0
05/10:30pm 22.6 18.4 8.3 40 7.6 SE 20 30 11 16 1015.5 1014.6 0.0
05/10:00pm 23.4 19.2 8.3 38 8.1 SE 20 30 11 16 1015.4 1014.5 0.0
05/09:30pm 24.0 19.7 8.0 36 8.5 SE 20 28 11 15 1015.4 1014.5 0.0
05/09:00pm 25.0 20.1 8.5 35 8.9 SSE 24 32 13 17 1015.1 1014.2 0.0
05/08:30pm 25.6 21.2 9.0 35 9.1 SSE 22 30 12 16 1014.9 1014.0 0.0
05/08:00pm 25.5 22.1 10.5 39 8.4 SE 19 22 10 12 1014.5 1013.6 0.0
05/07:30pm 25.5 23.0 12.4 44 7.6 SE 17 20 9 11 1014.0 1013.2 0.0
05/07:00pm 26.1 23.9 12.2 42 8.1 SE 15 17 8 9 1013.4 1012.6 0.0
05/06:30pm 26.7 24.6 12.4 41 8.3 SE 15 19 8 10 1013.0 1012.1 0.0
05/06:00pm 28.2 25.9 11.7 36 9.6 SE 15 17 8 9 1012.8 1011.9 0.0
05/05:30pm 29.5 26.9 12.0 34 10.3 SE 17 20 9 11 1012.6 1011.7 0.0
05/05:00pm 30.2 27.4 11.2 31 11.1 ESE 17 20 9 11 1012.3 1011.4 0.0
05/04:30pm 30.7 28.0 11.6 31 11.2 SSE 17 20 9 11 1012.3 1011.4 0.0
05/04:00pm 30.8 28.6 12.2 32 11.0 SE 15 22 8 12 1012.0 1011.1 0.0
05/03:30pm 30.8 28.8 12.7 33 10.8 SE 15 22 8 12 1011.9 1011.0 0.0
05/03:00pm 30.9 28.9 12.8 33 10.8 SE 15 26 8 14 1011.9 1011.0 0.0
05/02:30pm 30.6 28.8 13.4 35 10.4 SSE 15 24 8 13 1011.9 1011.0 0.0
05/02:00pm 30.1 28.4 12.5 34 10.4 SSE 13 28 7 15 1012.3 1011.4 0.0
05/01:30pm 29.9 27.3 13.2 36 10.0 SSE 19 28 10 15 1012.6 1011.7 0.0
05/01:00pm 29.6 27.7 12.9 35 9.9 SSE 15 24 8 13 1013.1 1012.2 0.0
05/12:30pm 29.4 26.9 13.6 38 9.5 SSE 19 30 10 16 1013.8 1013.0 0.0
05/12:00pm 28.8 26.3 14.2 40 8.8 SSE 20 28 11 15 1014.5 1013.6 0.0
05/11:30am 28.3 25.9 14.5 43 8.4 SE 20 30 11 16 1015.0 1014.1 0.0
05/11:00am 27.6 24.8 14.3 44 8.0 SSE 22 32 12 17 1015.3 1014.4 0.0
05/10:30am 26.9 24.0 15.0 48 7.2 SSE 24 33 13 18 1015.7 1014.8 0.0
05/10:00am 25.8 22.2 14.3 49 6.9 SSE 26 32 14 17 1016.0 1015.1 0.0
05/09:30am 24.5 21.0 13.4 50 6.5 SSE 24 32 13 17 1016.1 1015.2 0.0
05/09:00am 24.1 19.8 13.3 51 6.3 SSE 28 35 15 19 1015.9 1015.0 0.8
05/08:30am 23.6 19.5 13.8 54 5.8 SSE 28 33 15 18 1015.7 1014.8 0.6
05/08:00am 23.0 18.9 13.8 56 5.4 SSE 28 35 15 19 1015.4 1014.5 0.6
05/07:30am 22.2 18.7 13.5 57 5.1 SSE 24 39 13 21 1015.1 1014.2 0.6
05/07:00am 21.8 19.4 13.9 61 4.6 SSE 19 26 10 14 1014.8 1013.9 0.6

Other formats

Comma delimited format used in spreadsheet applications
http://www.bom.gov.au/fwo/IDQ60801/IDQ60801.94363.axf

JavaScript Object Notation format (JSON) in row-major order
http://www.bom.gov.au/fwo/IDQ60801/IDQ60801.94363.json

Data quality

Most of these data are generated automatically and are frequently updated. Quality checks on data are not normally performed. It is possible for incorrect values to appear. Refer to information at About Latest Weather Observations and please check the disclaimer before using these data.